Time;durP1;ratioP1;P1;durP2;ratioP2;P2;SDS_P1;SDS_P2;PMS_P1;PMS_P2;Temp;Humidity;BMP_temperature;BMP_pressure;BME280_temperature;BME280_humidity;BME280_pressure;Samples;Min_cycle;Max_cycle;Signal;HPM_P1;HPM_P2
2023/03/14 00:00:38;;;;;;;0.40;0.40;;;9.00;99.90;;;;;;5055587;28;20575;-68
2023/03/14 00:03:04;;;;;;;0.40;0.40;;;9.00;99.90;;;;;;5055526;28;20556;-68
2023/03/14 00:05:29;;;;;;;0.40;0.40;;;9.00;99.90;;;;;;5055891;28;20166;-68
2023/03/14 00:07:55;;;;;;;0.30;0.30;;;8.90;99.90;;;;;;5055623;28;20166;-68
2023/03/14 00:10:21;;;;;;;0.87;0.87;;;8.90;99.90;;;;;;5054269;28;20591;-68
2023/03/14 00:12:46;;;;;;;0.30;0.30;;;9.00;99.90;;;;;;5055505;28;20278;-68
2023/03/14 00:15:12;;;;;;;0.30;0.30;;;8.80;99.90;;;;;;5055527;28;20170;-68
2023/03/14 00:17:38;;;;;;;0.40;0.40;;;8.80;99.90;;;;;;5055325;28;20177;-68
2023/03/14 00:20:07;;;;;;;0.30;0.30;;;8.80;99.90;;;;;;5055252;28;20170;-68
2023/03/14 00:22:42;;;;;;;0.30;0.30;;;9.00;99.90;;;;;;5055284;28;20190;-68
2023/03/14 00:25:10;;;;;;;0.30;0.30;;;9.00;99.90;;;;;;5037315;28;20180;-68
2023/03/14 00:27:36;;;;;;;0.40;0.40;;;9.10;99.90;;;;;;5055085;28;20198;-68
2023/03/14 00:30:02;;;;;;;0.40;0.40;;;9.00;99.90;;;;;;5054981;28;20170;-68
2023/03/14 00:32:28;;;;;;;0.60;0.60;;;9.00;99.90;;;;;;5054741;28;20277;-69
2023/03/14 00:34:53;;;;;;;0.40;0.40;;;8.90;99.90;;;;;;5054947;28;20659;-68
2023/03/14 00:37:19;;;;;;;0.57;0.57;;;8.70;99.90;;;;;;5055200;28;20167;-68
2023/03/14 00:39:45;;;;;;;0.30;0.30;;;8.70;99.90;;;;;;5054862;28;20202;-68
2023/03/14 00:42:10;;;;;;;0.30;0.30;;;8.80;99.90;;;;;;5054542;28;20174;-68
2023/03/14 00:44:36;;;;;;;0.40;0.40;;;8.80;99.90;;;;;;5054987;28;20657;-68
2023/03/14 00:47:02;;;;;;;0.40;0.40;;;8.80;99.90;;;;;;5055012;28;20209;-68
2023/03/14 00:49:27;;;;;;;0.40;0.40;;;8.90;99.90;;;;;;5054788;28;20178;-68
2023/03/14 00:51:53;;;;;;;0.30;0.30;;;8.80;99.90;;;;;;5036435;28;20570;-68
2023/03/14 00:54:19;;;;;;;0.40;0.40;;;8.90;99.90;;;;;;5054465;28;20190;-68
2023/03/14 00:56:45;;;;;;;0.30;0.30;;;8.80;99.90;;;;;;5054546;28;20194;-68
2023/03/14 00:59:11;;;;;;;0.40;0.40;;;8.90;99.90;;;;;;5054680;28;20202;-68
2023/03/14 01:01:38;;;;;;;0.30;0.30;;;8.90;99.90;;;;;;5054353;28;20171;-68
2023/03/14 01:04:03;;;;;;;0.40;0.40;;;8.90;99.90;;;;;;5054457;28;20277;-68
2023/03/14 01:06:29;;;;;;;0.63;0.63;;;9.00;99.90;;;;;;5054525;28;20170;-68
2023/03/14 01:08:56;;;;;;;0.30;0.30;;;9.00;99.90;;;;;;5054499;28;20191;-68
2023/03/14 01:11:25;;;;;;;0.30;0.30;;;8.90;99.90;;;;;;5054064;28;20245;-68
2023/03/14 01:13:51;;;;;;;0.30;0.30;;;8.80;99.90;;;;;;5054265;28;20645;-68
2023/03/14 01:16:19;;;;;;;0.50;0.50;;;8.70;99.90;;;;;;5054192;28;20169;-68
2023/03/14 01:18:45;;;;;;;0.30;0.30;;;8.80;99.90;;;;;;5054194;28;20162;-68
2023/03/14 01:21:14;;;;;;;0.30;0.30;;;8.80;99.90;;;;;;5053735;28;20170;-68
2023/03/14 01:23:40;;;;;;;0.30;0.30;;;8.80;99.90;;;;;;5053935;28;20642;-68
2023/03/14 01:26:10;;;;;;;0.30;0.30;;;8.60;99.90;;;;;;5054254;28;20178;-68
2023/03/14 01:28:35;;;;;;;0.40;0.40;;;8.50;99.90;;;;;;5053976;28;20408;-68
2023/03/14 01:31:06;;;;;;;0.30;0.30;;;8.50;99.90;;;;;;5053696;28;20568;-68
2023/03/14 01:33:32;;;;;;;0.40;0.40;;;8.50;99.90;;;;;;5053712;28;20198;-68
2023/03/14 01:35:58;;;;;;;0.40;0.40;;;8.50;99.90;;;;;;5053932;28;20208;-68
2023/03/14 01:38:23;;;;;;;0.50;0.50;;;8.50;99.90;;;;;;5053960;28;20666;-68
2023/03/14 01:40:49;;;;;;;0.37;0.37;;;8.60;99.90;;;;;;5035674;28;20435;-68
2023/03/14 01:43:18;;;;;;;0.30;0.30;;;8.60;99.90;;;;;;5035737;28;20263;-68
2023/03/14 01:46:02;;;;;;;0.30;0.30;;;8.50;99.90;;;;;;5053870;28;20221;-68
2023/03/14 01:48:34;;;;;;;0.35;0.35;;;8.40;99.90;;;;;;5053762;28;20178;-68
2023/03/14 01:51:01;;;;;;;0.40;0.40;;;8.40;99.90;;;;;;5053553;28;20197;-68
2023/03/14 01:53:28;;;;;;;0.30;0.30;;;8.40;99.90;;;;;;5053404;28;20193;-68
2023/03/14 01:55:56;;;;;;;0.30;0.30;;;8.50;99.90;;;;;;5053483;28;20257;-68
2023/03/14 01:58:27;;;;;;;0.30;0.30;;;8.40;99.90;;;;;;5053570;28;20163;-68
2023/03/14 02:00:53;;;;;;;0.30;0.30;;;8.50;99.90;;;;;;5053453;28;20188;-68
2023/03/14 02:03:22;;;;;;;0.40;0.40;;;8.50;99.90;;;;;;5053499;28;20190;-68
2023/03/14 02:05:49;;;;;;;0.30;0.30;;;8.60;99.90;;;;;;5053752;28;20208;-68
2023/03/14 02:08:19;;;;;;;0.30;0.30;;;8.60;99.90;;;;;;5053557;28;20175;-68
2023/03/14 02:10:47;;;;;;;0.68;0.68;;;8.40;99.90;;;;;;5052999;28;20570;-68
2023/03/14 02:13:15;;;;;;;0.40;0.40;;;8.40;99.90;;;;;;5053260;28;20196;-68
2023/03/14 02:15:41;;;;;;;0.40;0.40;;;8.50;99.90;;;;;;5053235;28;20174;-68
2023/03/14 02:18:08;;;;;;;0.30;0.30;;;8.50;99.90;;;;;;5053229;28;20526;-68
2023/03/14 02:20:51;;;;;;;0.30;0.30;;;8.30;99.90;;;;;;5053093;28;20174;-68
2023/03/14 02:23:39;;;;;;;0.40;0.40;;;8.30;99.90;;;;;;5053211;28;20233;-68
2023/03/14 02:26:14;;;;;;;0.65;0.65;;;8.40;99.90;;;;;;5052557;28;20553;-68
2023/03/14 02:28:40;;;;;;;0.40;0.40;;;8.40;99.90;;;;;;5053250;28;20205;-68
2023/03/14 02:31:08;;;;;;;0.30;0.30;;;8.30;99.90;;;;;;5052945;28;20226;-68
2023/03/14 02:33:37;;;;;;;0.40;0.40;;;8.20;99.90;;;;;;5055532;28;20246;-68
2023/03/14 02:36:07;;;;;;;0.40;0.40;;;8.20;99.90;;;;;;5057198;28;20260;-68
2023/03/14 02:39:13;;;;;;;0.30;0.30;;;8.20;99.90;;;;;;5057286;28;20565;-68
2023/03/14 02:41:39;;;;;;;0.32;0.32;;;8.20;99.90;;;;;;5015237;28;20190;-68
2023/03/14 02:44:05;;;;;;;0.33;0.33;;;8.10;99.90;;;;;;5049984;28;20210;-68
2023/03/14 02:46:31;;;;;;;0.50;0.40;;;8.20;99.90;;;;;;5057151;28;20653;-68
2023/03/14 02:49:07;;;;;;;0.50;0.50;;;8.10;99.90;;;;;;5057120;28;20537;-68
2023/03/14 02:51:34;;;;;;;0.40;0.40;;;8.10;99.90;;;;;;5056840;28;20224;-68
2023/03/14 02:54:00;;;;;;;0.30;0.30;;;8.10;99.90;;;;;;5038919;28;20655;-68
2023/03/14 02:56:25;;;;;;;0.40;0.40;;;8.10;99.90;;;;;;5056897;28;20178;-68
2023/03/14 02:58:51;;;;;;;0.30;0.30;;;8.00;99.90;;;;;;5056913;28;20181;-68
2023/03/14 03:01:17;;;;;;;0.60;0.60;;;7.90;99.90;;;;;;5056597;28;20540;-68
2023/03/14 03:03:42;;;;;;;0.40;0.40;;;8.00;99.90;;;;;;5056547;28;20205;-68
2023/03/14 03:06:08;;;;;;;0.30;0.30;;;8.20;99.90;;;;;;5056624;28;20174;-68
2023/03/14 03:08:34;;;;;;;0.33;0.33;;;8.20;99.90;;;;;;5056667;28;20260;-68
2023/03/14 03:10:59;;;;;;;0.30;0.30;;;8.20;99.90;;;;;;5056374;28;20233;-68
2023/03/14 03:13:26;;;;;;;0.60;0.60;;;8.10;99.90;;;;;;5056639;28;20462;-68
2023/03/14 03:15:52;;;;;;;0.30;0.30;;;8.20;99.90;;;;;;5056538;28;20177;-68
2023/03/14 03:18:18;;;;;;;0.40;0.40;;;8.10;99.90;;;;;;5056595;28;20173;-68
2023/03/14 03:20:44;;;;;;;0.40;0.40;;;8.10;99.90;;;;;;5056406;28;20392;-68
2023/03/14 03:23:09;;;;;;;0.30;0.30;;;8.10;99.90;;;;;;5056278;28;20952;-68
2023/03/14 03:25:35;;;;;;;0.30;0.30;;;8.10;99.90;;;;;;5056316;28;20253;-68
2023/03/14 03:28:01;;;;;;;9.33;1.20;;;8.20;99.90;;;;;;5056232;28;20173;-68
2023/03/14 03:30:26;;;;;;;0.40;0.40;;;8.30;99.90;;;;;;5056130;28;20200;-68
2023/03/14 03:32:52;;;;;;;0.30;0.30;;;8.40;99.90;;;;;;5055941;28;20319;-68
2023/03/14 03:35:18;;;;;;;3.30;1.23;;;8.20;99.90;;;;;;5056349;28;20198;-68
2023/03/14 03:37:43;;;;;;;0.30;0.30;;;8.10;99.90;;;;;;5056268;28;20197;-68
2023/03/14 03:40:10;;;;;;;0.30;0.30;;;8.00;99.90;;;;;;5056135;28;20201;-68
2023/03/14 03:42:35;;;;;;;0.30;0.30;;;8.10;99.90;;;;;;5056053;28;20228;-68
2023/03/14 03:45:02;;;;;;;0.30;0.30;;;8.00;99.90;;;;;;5055849;28;20225;-68
2023/03/14 03:47:30;;;;;;;0.40;0.40;;;7.80;99.90;;;;;;5055770;28;20227;-68
2023/03/14 03:49:56;;;;;;;0.40;0.40;;;7.80;99.90;;;;;;5037848;28;20649;-68
2023/03/14 03:52:21;;;;;;;0.43;0.43;;;7.70;99.90;;;;;;5055535;28;20170;-68
2023/03/14 03:54:47;;;;;;;0.40;0.40;;;7.70;99.90;;;;;;5055539;28;20174;-68
2023/03/14 03:57:13;;;;;;;0.87;0.87;;;7.90;99.90;;;;;;5055870;28;20169;-68
2023/03/14 03:59:40;;;;;;;0.30;0.30;;;7.90;99.90;;;;;;5055647;28;20669;-68
2023/03/14 04:02:06;;;;;;;0.40;0.40;;;8.00;99.90;;;;;;5055390;28;20184;-68
2023/03/14 04:04:31;;;;;;;0.40;0.40;;;8.00;99.90;;;;;;5037966;28;20296;-68
2023/03/14 04:06:57;;;;;;;0.40;0.40;;;7.90;99.90;;;;;;5055866;28;20412;-68
2023/03/14 04:09:22;;;;;;;0.30;0.30;;;7.90;99.90;;;;;;5055532;28;20231;-68
2023/03/14 04:11:48;;;;;;;0.30;0.30;;;7.90;99.90;;;;;;5055378;28;20208;-68
2023/03/14 04:14:14;;;;;;;0.40;0.40;;;7.90;99.90;;;;;;5055511;28;20194;-68
2023/03/14 04:16:40;;;;;;;1.17;1.17;;;7.90;99.90;;;;;;5055349;28;20256;-68
2023/03/14 04:19:05;;;;;;;0.40;0.40;;;8.00;99.90;;;;;;5055532;28;20408;-68
2023/03/14 04:21:31;;;;;;;0.40;0.40;;;8.00;99.90;;;;;;5055319;28;20638;-68
2023/03/14 04:23:56;;;;;;;0.30;0.30;;;8.00;99.90;;;;;;5055069;28;20194;-68
2023/03/14 04:26:22;;;;;;;0.30;0.30;;;7.90;99.90;;;;;;5055374;28;20173;-68
2023/03/14 04:28:48;;;;;;;0.30;0.30;;;7.90;99.90;;;;;;5055323;28;20174;-68
2023/03/14 04:31:19;;;;;;;0.30;0.30;;;7.80;99.90;;;;;;5054869;28;20205;-68
2023/03/14 04:33:46;;;;;;;0.40;0.40;;;7.70;99.90;;;;;;5054989;28;20198;-68
2023/03/14 04:36:11;;;;;;;0.30;0.30;;;7.80;99.90;;;;;;5055024;28;20183;-68
2023/03/14 04:38:39;;;;;;;0.38;0.38;;;7.80;99.90;;;;;;5055122;28;20255;-68
2023/03/14 04:41:04;;;;;;;0.40;0.40;;;7.70;99.90;;;;;;5054804;28;20168;-68
2023/03/14 04:43:30;;;;;;;0.40;0.40;;;7.70;99.90;;;;;;5054979;28;20482;-68
2023/03/14 04:45:57;;;;;;;0.30;0.30;;;7.70;99.90;;;;;;5036941;28;20503;-68
2023/03/14 04:48:24;;;;;;;0.30;0.30;;;7.70;99.90;;;;;;5054754;28;20538;-68
2023/03/14 04:50:50;;;;;;;0.40;0.40;;;7.70;99.90;;;;;;5054603;28;20215;-68
2023/03/14 04:53:17;;;;;;;0.30;0.30;;;7.60;99.90;;;;;;5054772;28;20204;-68
2023/03/14 04:55:51;;;;;;;0.30;0.30;;;7.60;99.90;;;;;;5054063;28;20226;-68
2023/03/14 04:58:17;;;;;;;0.30;0.30;;;7.60;99.90;;;;;;5054832;28;20254;-68
2023/03/14 05:00:42;;;;;;;0.40;0.40;;;7.70;99.90;;;;;;5054418;28;20210;-68
2023/03/14 05:03:08;;;;;;;0.40;0.40;;;7.90;99.90;;;;;;5054496;28;20465;-68
2023/03/14 05:05:34;;;;;;;0.60;0.60;;;7.90;99.90;;;;;;5054474;28;20174;-68
2023/03/14 05:07:59;;;;;;;0.40;0.40;;;7.80;99.90;;;;;;5054612;28;20200;-68
2023/03/14 05:10:25;;;;;;;0.50;0.50;;;7.80;99.90;;;;;;5054112;28;20554;-68
2023/03/14 05:12:51;;;;;;;0.60;0.60;;;7.80;99.90;;;;;;5054424;28;20182;-68
2023/03/14 05:15:16;;;;;;;0.30;0.30;;;8.00;99.90;;;;;;5054255;28;20413;-68
2023/03/14 05:17:42;;;;;;;0.30;0.30;;;8.10;99.90;;;;;;5054311;28;20527;-68
2023/03/14 05:20:12;;;;;;;0.40;0.40;;;8.00;99.90;;;;;;5054106;28;20666;-68
2023/03/14 05:22:38;;;;;;;0.40;0.40;;;8.00;99.90;;;;;;5054230;28;20237;-68
2023/03/14 05:25:04;;;;;;;0.40;0.40;;;8.00;99.90;;;;;;5054134;28;20208;-68
2023/03/14 05:27:30;;;;;;;0.30;0.30;;;8.00;99.90;;;;;;5053940;28;20520;-68
2023/03/14 05:29:56;;;;;;;0.30;0.30;;;8.00;99.90;;;;;;5053944;28;20263;-68
2023/03/14 05:32:21;;;;;;;0.60;0.60;;;7.90;99.90;;;;;;5053672;28;20197;-68
2023/03/14 05:34:47;;;;;;;0.30;0.30;;;7.90;99.90;;;;;;5053839;28;20208;-68
2023/03/14 05:37:12;;;;;;;0.50;0.50;;;8.00;99.90;;;;;;5053997;28;20688;-68
2023/03/14 05:39:38;;;;;;;0.60;0.40;;;8.00;99.90;;;;;;5053938;28;20181;-68
2023/03/14 05:42:04;;;;;;;1.23;1.13;;;8.00;99.90;;;;;;5053581;28;20249;-68
2023/03/14 05:44:29;;;;;;;0.53;0.40;;;8.00;99.90;;;;;;5053630;28;20320;-68
2023/03/14 05:46:55;;;;;;;0.30;0.30;;;8.00;99.90;;;;;;5053804;28;20177;-68
2023/03/14 05:49:21;;;;;;;0.33;0.33;;;8.10;99.90;;;;;;5053493;28;20200;-68
2023/03/14 05:51:46;;;;;;;0.30;0.30;;;8.10;99.90;;;;;;5053444;28;20312;-68
2023/03/14 05:54:12;;;;;;;0.40;0.40;;;8.00;99.90;;;;;;5053557;28;20235;-68
2023/03/14 05:56:37;;;;;;;0.30;0.30;;;8.00;99.90;;;;;;5053652;28;20627;-68
2023/03/14 05:59:03;;;;;;;0.40;0.40;;;7.90;99.90;;;;;;5053945;28;20176;-68
2023/03/14 06:01:29;;;;;;;0.40;0.40;;;8.00;99.90;;;;;;5053379;28;20173;-68
2023/03/14 06:03:55;;;;;;;0.30;0.30;;;8.00;99.90;;;;;;5053387;28;20587;-68
2023/03/14 06:06:21;;;;;;;0.40;0.40;;;8.00;99.90;;;;;;5053337;28;20260;-67
2023/03/14 06:08:46;;;;;;;0.30;0.30;;;8.00;99.90;;;;;;5052703;28;20223;-68
2023/03/14 06:11:12;;;;;;;0.40;0.40;;;8.00;99.90;;;;;;5053121;28;20200;-68
2023/03/14 06:13:38;;;;;;;0.40;0.40;;;7.90;99.90;;;;;;5053191;28;20189;-68
2023/03/14 06:16:04;;;;;;;0.30;0.30;;;7.90;99.90;;;;;;5053486;28;20498;-68
2023/03/14 06:18:30;;;;;;;0.40;0.40;;;7.90;99.90;;;;;;5053346;28;20229;-68
2023/03/14 06:20:56;;;;;;;0.30;0.30;;;7.90;99.90;;;;;;5053004;28;20184;-68
2023/03/14 06:23:22;;;;;;;0.43;0.43;;;8.00;99.90;;;;;;5053204;28;20251;-68
2023/03/14 06:25:48;;;;;;;0.30;0.30;;;8.00;99.90;;;;;;5035137;28;20185;-68
2023/03/14 06:28:13;;;;;;;0.30;0.30;;;8.10;99.90;;;;;;5053117;28;20192;-68
2023/03/14 06:30:39;;;;;;;0.40;0.40;;;8.20;99.90;;;;;;5052826;28;20212;-68
2023/03/14 06:33:05;;;;;;;0.80;0.50;;;8.30;99.90;;;;;;5052926;28;20296;-68
2023/03/14 06:35:30;;;;;;;0.30;0.30;;;8.30;99.90;;;;;;5053230;28;20158;-68
2023/03/14 06:37:56;;;;;;;0.30;0.30;;;8.50;99.90;;;;;;5053249;28;20268;-68
2023/03/14 06:40:22;;;;;;;0.47;0.47;;;8.50;99.90;;;;;;5052769;28;20185;-68
2023/03/14 06:42:47;;;;;;;0.67;0.67;;;8.50;99.90;;;;;;5052963;28;20536;-68
2023/03/14 06:45:14;;;;;;;0.40;0.40;;;8.70;99.90;;;;;;5053148;28;20170;-68
2023/03/14 06:47:39;;;;;;;0.30;0.30;;;8.90;99.90;;;;;;5053086;28;20180;-68
2023/03/14 06:50:06;;;;;;;0.37;0.37;;;9.00;99.90;;;;;;5052942;28;20182;-68
2023/03/14 06:52:32;;;;;;;0.30;0.30;;;9.10;99.90;;;;;;5052923;28;20166;-68
2023/03/14 06:54:57;;;;;;;0.30;0.30;;;9.40;99.90;;;;;;5052916;28;20182;-68
2023/03/14 06:57:23;;;;;;;0.40;0.40;;;9.60;99.90;;;;;;5052889;28;20175;-68
2023/03/14 06:59:48;;;;;;;0.30;0.30;;;9.70;99.90;;;;;;5035066;28;20635;-68
2023/03/14 07:02:14;;;;;;;0.50;0.50;;;9.90;99.90;;;;;;5052722;28;20170;-68
2023/03/14 07:04:40;;;;;;;0.30;0.30;;;10.10;99.90;;;;;;5052794;28;20174;-68
2023/03/14 07:07:06;;;;;;;0.40;0.40;;;10.30;99.90;;;;;;5052783;28;20178;-68
2023/03/14 07:09:32;;;;;;;0.30;0.30;;;10.30;99.80;;;;;;5052941;28;20582;-68
2023/03/14 07:11:58;;;;;;;0.60;0.60;;;10.20;99.90;;;;;;5052624;28;20581;-68
2023/03/14 07:14:24;;;;;;;0.30;0.30;;;10.20;99.90;;;;;;5052743;28;20190;-68
2023/03/14 07:16:49;;;;;;;0.30;0.30;;;10.00;99.60;;;;;;5052821;28;20166;-68
2023/03/14 07:19:15;;;;;;;0.40;0.40;;;9.90;99.90;;;;;;5054741;28;20166;-68
2023/03/14 07:21:40;;;;;;;0.50;0.50;;;9.70;99.70;;;;;;5056312;28;20205;-68
2023/03/14 07:24:06;;;;;;;0.40;0.40;;;9.60;99.80;;;;;;5038664;28;20206;-68
2023/03/14 07:26:32;;;;;;;0.50;0.50;;;9.60;99.90;;;;;;5056311;28;20205;-68
2023/03/14 07:28:57;;;;;;;0.30;0.30;;;9.50;99.70;;;;;;5056318;28;20182;-68
2023/03/14 07:31:24;;;;;;;0.50;0.50;;;9.40;99.80;;;;;;5056151;28;20225;-68
2023/03/14 07:33:49;;;;;;;0.40;0.40;;;9.20;99.90;;;;;;5056003;28;20214;-68
2023/03/14 07:36:15;;;;;;;0.40;0.40;;;9.10;99.90;;;;;;5056181;28;20201;-68
2023/03/14 07:38:41;;;;;;;0.30;0.30;;;9.10;99.90;;;;;;5056210;28;20173;-68
2023/03/14 07:41:07;;;;;;;0.30;0.30;;;9.00;99.90;;;;;;5056006;28;20174;-68
2023/03/14 07:43:33;;;;;;;0.40;0.40;;;9.00;99.90;;;;;;5055961;28;20803;-68
2023/03/14 07:45:59;;;;;;;0.47;0.47;;;9.00;99.90;;;;;;5056191;28;20678;-68
2023/03/14 07:48:26;;;;;;;0.30;0.30;;;9.10;99.90;;;;;;5056126;28;20186;-68
2023/03/14 07:50:53;;;;;;;0.40;0.40;;;9.30;99.90;;;;;;5055709;28;20194;-68
2023/03/14 07:53:20;;;;;;;0.30;0.30;;;9.30;99.90;;;;;;5055649;28;20210;-68
2023/03/14 07:55:46;;;;;;;0.50;0.50;;;9.50;99.90;;;;;;5055698;28;20224;-68
2023/03/14 07:58:12;;;;;;;1.02;0.93;;;9.60;99.90;;;;;;5055953;28;20171;-68
2023/03/14 08:00:38;;;;;;;0.30;0.30;;;9.60;99.90;;;;;;5055465;28;20603;-68
2023/03/14 08:03:04;;;;;;;0.30;0.30;;;9.50;99.90;;;;;;5055677;28;20420;-68
2023/03/14 08:05:29;;;;;;;0.50;0.50;;;9.60;99.90;;;;;;5055640;28;20178;-68
2023/03/14 08:07:55;;;;;;;0.30;0.30;;;9.70;99.90;;;;;;5055466;28;20462;-68
2023/03/14 08:10:23;;;;;;;0.40;0.40;;;9.70;99.90;;;;;;5055492;28;20234;-68
2023/03/14 08:12:55;;;;;;;0.30;0.30;;;9.70;99.90;;;;;;5055395;28;20194;-68
2023/03/14 08:15:22;;;;;;;0.30;0.30;;;9.80;99.90;;;;;;5055479;28;20177;-68
2023/03/14 08:17:50;;;;;;;0.40;0.40;;;9.90;99.90;;;;;;5055524;28;20526;-68
2023/03/14 08:20:17;;;;;;;0.30;0.30;;;10.00;99.90;;;;;;5055291;28;20170;-68
2023/03/14 08:22:43;;;;;;;0.65;0.65;;;10.10;99.90;;;;;;5055043;28;20593;-68
2023/03/14 08:25:09;;;;;;;0.30;0.30;;;10.10;99.90;;;;;;5055278;28;20249;-68
2023/03/14 08:27:37;;;;;;;0.50;0.40;;;10.20;99.90;;;;;;5055249;28;20223;-68
2023/03/14 08:30:04;;;;;;;0.30;0.30;;;10.20;99.90;;;;;;5054320;28;20401;-68
2023/03/14 08:32:29;;;;;;;0.40;0.40;;;10.30;99.90;;;;;;5054872;28;20415;-68
2023/03/14 08:34:55;;;;;;;0.30;0.30;;;10.20;99.90;;;;;;5054974;28;20175;-68
2023/03/14 08:37:21;;;;;;;0.40;0.40;;;10.20;99.90;;;;;;5055022;28;20436;-68
2023/03/14 08:39:47;;;;;;;0.30;0.30;;;10.40;99.90;;;;;;5055217;28;20213;-68
2023/03/14 08:42:12;;;;;;;0.40;0.40;;;10.30;99.90;;;;;;5054901;28;20182;-68
2023/03/14 08:44:38;;;;;;;0.30;0.30;;;10.40;99.90;;;;;;5055001;28;20213;-68
2023/03/14 08:47:04;;;;;;;0.40;0.40;;;10.50;99.90;;;;;;5055076;28;20192;-68
2023/03/14 08:49:30;;;;;;;0.30;0.30;;;10.70;99.80;;;;;;5055456;28;20523;-68
2023/03/14 08:51:55;;;;;;;0.40;0.40;;;10.70;99.70;;;;;;5054579;28;20459;-68
2023/03/14 08:54:21;;;;;;;0.40;0.40;;;10.70;99.70;;;;;;5054685;28;20194;-68
2023/03/14 08:56:46;;;;;;;0.30;0.30;;;10.70;99.90;;;;;;5054701;28;20193;-68
2023/03/14 08:59:12;;;;;;;0.40;0.40;;;10.60;99.90;;;;;;5054735;28;20174;-68
2023/03/14 09:01:38;;;;;;;0.30;0.30;;;10.50;99.90;;;;;;5054373;28;20181;-68
2023/03/14 09:04:03;;;;;;;0.40;0.40;;;10.40;99.90;;;;;;5054358;28;20686;-68
2023/03/14 09:06:29;;;;;;;0.40;0.40;;;10.40;99.90;;;;;;5054416;28;20178;-68
2023/03/14 09:08:55;;;;;;;0.40;0.40;;;10.40;99.90;;;;;;5054633;28;20170;-68
2023/03/14 09:11:20;;;;;;;0.40;0.40;;;10.50;99.90;;;;;;5036239;28;20296;-68
2023/03/14 09:13:46;;;;;;;0.40;0.40;;;10.50;99.90;;;;;;5054365;28;20190;-68
2023/03/14 09:16:12;;;;;;;0.30;0.30;;;10.50;99.90;;;;;;5054219;28;20166;-68
2023/03/14 09:18:37;;;;;;;0.40;0.40;;;10.50;99.90;;;;;;5054307;28;20646;-68
2023/03/14 09:21:03;;;;;;;0.30;0.30;;;10.50;99.90;;;;;;5054166;28;20804;-68
2023/03/14 09:23:29;;;;;;;0.40;0.40;;;10.40;99.90;;;;;;5054167;28;20197;-69
2023/03/14 09:25:56;;;;;;;0.30;0.30;;;10.40;99.90;;;;;;5054071;28;20465;-68
2023/03/14 09:28:22;;;;;;;0.30;0.30;;;10.40;99.90;;;;;;5054135;28;20189;-68
2023/03/14 09:30:49;;;;;;;0.30;0.30;;;10.20;99.90;;;;;;5053830;28;20246;-69
2023/03/14 09:33:15;;;;;;;0.38;0.38;;;10.30;99.90;;;;;;5053799;28;20292;-68
2023/03/14 09:35:41;;;;;;;0.40;0.40;;;10.30;99.90;;;;;;5054128;28;20696;-68
2023/03/14 09:38:06;;;;;;;0.37;0.37;;;10.40;99.90;;;;;;5053886;28;20162;-68
2023/03/14 09:40:35;;;;;;;0.50;0.40;;;10.40;99.90;;;;;;5053728;28;20178;-68
2023/03/14 09:43:01;;;;;;;0.30;0.30;;;10.50;99.90;;;;;;5035858;28;20232;-69
2023/03/14 09:45:34;;;;;;;0.40;0.40;;;10.50;99.90;;;;;;5053708;28;20251;-68
2023/03/14 09:48:02;;;;;;;1.13;1.02;;;10.40;99.90;;;;;;5054099;28;20174;-68
2023/03/14 09:50:38;;;;;;;0.40;0.40;;;10.40;99.90;;;;;;5053577;28;20201;-68
2023/03/14 09:53:12;;;;;;;0.50;0.50;;;10.00;99.90;;;;;;5053659;28;20686;-68
2023/03/14 09:55:39;;;;;;;0.40;0.40;;;10.00;99.90;;;;;;5035697;28;20667;-68
2023/03/14 09:58:11;;;;;;;0.50;0.50;;;9.90;99.90;;;;;;5053684;28;20170;-68
2023/03/14 10:00:37;;;;;;;0.32;0.32;;;9.80;99.90;;;;;;5053603;28;20240;-68
2023/03/14 10:03:11;;;;;;;1.40;0.80;;;9.60;99.90;;;;;;5053295;28;20197;-68
2023/03/14 10:05:38;;;;;;;0.85;0.85;;;9.40;99.90;;;;;;5053171;28;20795;-68
2023/03/14 10:08:04;;;;;;;0.40;0.40;;;9.20;99.90;;;;;;5053297;28;20182;-68
2023/03/14 10:10:31;;;;;;;0.40;0.40;;;9.20;99.90;;;;;;5053189;28;20194;-68
2023/03/14 10:13:12;;;;;;;2.88;1.45;;;9.10;99.90;;;;;;5053426;28;20202;-68
2023/03/14 10:15:38;;;;;;;0.40;0.40;;;9.00;99.90;;;;;;5053362;28;20173;-68
2023/03/14 10:18:11;;;;;;;0.32;0.32;;;8.80;99.90;;;;;;5053376;28;20206;-68
2023/03/14 10:20:43;;;;;;;0.40;0.40;;;8.90;99.90;;;;;;5053300;28;20257;-68
2023/03/14 10:23:11;;;;;;;0.52;0.52;;;8.90;99.90;;;;;;5053191;28;20189;-68
2023/03/14 10:25:43;;;;;;;0.50;0.50;;;8.90;99.90;;;;;;5053166;28;20173;-68
2023/03/14 10:28:26;;;;;;;0.40;0.40;;;8.70;99.90;;;;;;5053234;28;20170;-68
2023/03/14 10:30:52;;;;;;;0.30;0.30;;;8.60;99.90;;;;;;5053003;28;20251;-69
2023/03/14 10:33:18;;;;;;;0.30;0.30;;;8.60;99.90;;;;;;5052943;28;20694;-68
2023/03/14 10:35:45;;;;;;;0.40;0.40;;;8.70;99.90;;;;;;5053064;28;20222;-69
2023/03/14 10:38:17;;;;;;;0.35;0.35;;;8.70;99.90;;;;;;5053323;28;20172;-68
2023/03/14 10:40:49;;;;;;;0.50;0.40;;;8.60;99.90;;;;;;5053031;28;20174;-69
2023/03/14 10:43:19;;;;;;;0.40;0.40;;;8.60;99.90;;;;;;5053123;28;20195;-69
2023/03/14 10:45:52;;;;;;;1.27;0.85;;;8.50;99.90;;;;;;5053241;28;20186;-69
2023/03/14 10:48:20;;;;;;;0.40;0.40;;;8.50;99.90;;;;;;5053152;28;20508;-69
2023/03/14 10:51:03;;;;;;;1.55;1.45;;;8.60;99.90;;;;;;5052775;28;20238;-68
2023/03/14 10:53:38;;;;;;;0.30;0.30;;;8.30;99.90;;;;;;5053673;28;20194;-69
2023/03/14 10:56:04;;;;;;;0.30;0.30;;;8.40;99.90;;;;;;5057056;28;20154;-69
2023/03/14 10:58:33;;;;;;;0.43;0.43;;;8.60;99.90;;;;;;5056906;28;20176;-69
2023/03/14 11:01:16;;;;;;;0.50;0.50;;;8.40;99.90;;;;;;5056633;28;20647;-68
2023/03/14 11:03:49;;;;;;;0.40;0.40;;;8.40;99.90;;;;;;5056786;28;20194;-69
2023/03/14 11:06:25;;;;;;;0.50;0.50;;;8.50;99.90;;;;;;5038928;28;20173;-69
2023/03/14 11:09:05;;;;;;;0.30;0.30;;;8.70;99.90;;;;;;5038821;28;20247;-69
2023/03/14 11:11:32;;;;;;;0.40;0.40;;;8.50;99.90;;;;;;5056635;28;20667;-69
2023/03/14 11:14:03;;;;;;;0.40;0.40;;;8.40;99.90;;;;;;5056554;28;20186;-69
2023/03/14 11:16:44;;;;;;;0.40;0.40;;;8.40;99.90;;;;;;5056547;28;20166;-68
2023/03/14 11:19:58;;;;;;;0.40;0.40;;;8.30;99.90;;;;;;5056660;28;20202;-68
2023/03/14 11:22:41;;;;;;;0.30;0.30;;;8.10;99.90;;;;;;5046945;28;20260;-69
2023/03/14 11:25:17;;;;;;;0.30;0.30;;;7.90;99.90;;;;;;5056460;28;20541;-68
2023/03/14 11:28:01;;;;;;;0.40;0.40;;;7.70;99.90;;;;;;5038685;28;20657;-69
2023/03/14 11:30:41;;;;;;;0.40;0.40;;;7.70;99.90;;;;;;5056287;28;20428;-68
2023/03/14 11:33:15;;;;;;;0.30;0.30;;;7.80;99.90;;;;;;5056228;28;20292;-69
2023/03/14 11:35:53;;;;;;;0.40;0.40;;;8.00;99.90;;;;;;5056238;28;20165;-68
2023/03/14 11:38:36;;;;;;;0.30;0.30;;;8.00;99.90;;;;;;5056310;28;20172;-69
2023/03/14 11:41:04;;;;;;;0.30;0.30;;;7.90;99.90;;;;;;5056370;28;20197;-69
2023/03/14 11:43:30;;;;;;;0.30;0.30;;;7.90;99.90;;;;;;5037995;28;20208;-68
2023/03/14 11:46:04;;;;;;;0.50;0.50;;;7.90;99.90;;;;;;5056032;28;20169;-68
2023/03/14 11:48:38;;;;;;;0.57;0.57;;;7.70;99.90;;;;;;5056407;28;20184;-69
2023/03/14 11:51:11;;;;;;;0.40;0.40;;;7.70;99.90;;;;;;5055845;28;20704;-69
2023/03/14 11:53:51;;;;;;;0.63;0.63;;;7.80;99.90;;;;;;5055939;28;20299;-68
2023/03/14 11:56:25;;;;;;;1.05;0.90;;;7.80;99.90;;;;;;5055738;28;20173;-69
2023/03/14 11:58:59;;;;;;;0.68;0.68;;;7.90;99.90;;;;;;5055992;28;20550;-68
2023/03/14 12:01:36;;;;;;;0.40;0.40;;;7.80;99.90;;;;;;5055564;28;20639;-68
2023/03/14 12:04:14;;;;;;;0.70;0.70;;;7.80;99.90;;;;;;5055953;28;20205;-69
2023/03/14 12:06:51;;;;;;;0.50;0.50;;;7.80;99.90;;;;;;5054870;28;20173;-69
2023/03/14 12:09:19;;;;;;;0.50;0.40;;;8.00;99.90;;;;;;5055712;28;20235;-69
2023/03/14 12:11:48;;;;;;;0.30;0.30;;;8.30;99.90;;;;;;5055388;28;20223;-69
2023/03/14 12:14:22;;;;;;;0.30;0.30;;;8.30;99.90;;;;;;5055357;28;20186;-69
2023/03/14 12:16:49;;;;;;;0.40;0.40;;;8.40;99.90;;;;;;5055532;28;20257;-68
2023/03/14 12:19:26;;;;;;;0.40;0.40;;;7.80;99.90;;;;;;5055455;28;20174;-68
2023/03/14 12:22:06;;;;;;;0.40;0.40;;;7.80;99.90;;;;;;5055002;28;20235;-69
2023/03/14 12:24:35;;;;;;;0.32;0.32;;;7.80;99.90;;;;;;5055285;28;20276;-68
2023/03/14 12:27:03;;;;;;;0.40;0.40;;;7.90;99.90;;;;;;5055651;28;20566;-69
2023/03/14 12:29:30;;;;;;;0.60;0.60;;;8.00;99.90;;;;;;5055423;28;20170;-69
2023/03/14 12:32:09;;;;;;;0.30;0.30;;;8.20;99.90;;;;;;5055178;28;20288;-69
2023/03/14 12:34:40;;;;;;;0.40;0.40;;;8.20;99.90;;;;;;5054969;28;20307;-68
2023/03/14 12:37:09;;;;;;;0.50;0.50;;;7.70;99.90;;;;;;5055111;28;20220;-69
2023/03/14 12:39:58;;;;;;;0.30;0.30;;;7.60;99.90;;;;;;5055441;28;20169;-68
2023/03/14 12:42:30;;;;;;;0.30;0.30;;;7.70;99.90;;;;;;5054786;28;20263;-69
2023/03/14 12:45:14;;;;;;;0.60;0.60;;;7.90;99.90;;;;;;5054806;28;20543;-69
2023/03/14 12:47:42;;;;;;;0.38;0.38;;;8.00;99.90;;;;;;5055056;28;20207;-69
2023/03/14 12:50:31;;;;;;;0.40;0.40;;;8.10;99.90;;;;;;5054709;28;20182;-69
2023/03/14 12:53:15;;;;;;;0.70;0.70;;;8.30;99.90;;;;;;5030676;28;20294;-68
2023/03/14 12:56:07;;;;;;;0.40;0.40;;;8.30;98.90;;;;;;5055148;28;20181;-69
2023/03/14 12:58:44;;;;;;;0.30;0.30;;;8.30;98.80;;;;;;5054251;28;20553;-69
2023/03/14 13:01:18;;;;;;;2.42;2.28;;;8.50;98.80;;;;;;5054562;28;20170;-68